Tanger, Maroc

07:24 WEST le 02 octobre 2014 (GMT +0100)
Ibn Batouta | Change Station
CLOSE
Current Station
Aéroport
Location: Tanger,
Altitude: 69 ft
Stations météo à proximité

Alt. 69 ft 35.73 °N, 5.91 °W | Updated 24 minutes ago

Scattered Clouds
Nuages épars
73 ° F
Paraît 73 ° F
N
18
Vent Variable Vent de Est

Aujourd'hui
Haut(e) -- | Bas -- ° F
--% Risque de précip.
Hier
Haut(e) -- | Bas -- ° F
Precip. -- pouce
7:19 AM 7:06 PM
Premier quartier, 55% visible
Pression 30.01 pouce
Visibilité 5.0 Miles terrestres
Nuages Nuages épars 1600 ft
Point de rosée 64 ° F
Humidité 73%
Précipitations 0.00 pouce
Profondeur de la couche neigeuse Non disponible.
UV 0 sur 12
Pollen Non disponible.
Qualité de l'air Non disponible.
Flu Activity Non disponible.
METAR GMTT 020600Z 09016KT 8000 SCT016 23/18 Q1016 NOSIG

More Conditions Fewer Conditions

Pression 30.01 pouce
Visibilité 5.0 Miles terrestres
Nuages Nuages épars 1600 ft
Point de rosée 64 ° F
Humidité 73%
Précipitations 0.00 pouce
Profondeur de la couche neigeuse Non disponible.
UV 0 sur 12
Pollen Non disponible.
Qualité de l'air Non disponible.
Flu Activity Non disponible.
METAR GMTT 020600Z 09016KT 8000 SCT016 23/18 Q1016 NOSIG

More Conditions Fewer Conditions

10-Day Weather Forecast

Almanac

Astronomie

Oct. 02, 2014 Lever Coucher
Temps réel 07:19 WEST 19:06 WEST
Crépuscule civil 06:53 WEST 19:31 WEST
Crépuscule nautique 06:24 WEST 20:01 WEST
Crépuscule astronomique 05:54 WEST 20:30 WEST
Lune 14:50 WEST 00:33 WEST
Durée de lumière visible 12h 37m
Longueur du jour
11h 46m
Tomorrow will be 2m 13s shorter.
Premier quartier, 55% of the Moon is Illuminated
Aujourd'hui
Premier quartier
Oct 8
Pleine lune
Oct 15
Dernier quartier
Oct 23
Nouveau
Oct 30
Premier quartier

Les extrêmes de température d’hier

Country Highs Country Lows

Community

WunderPhotos

Upload Photos

1,758,198 Photos téléchargées !

WunderBlogs® & News

Nearby

Qualité de l'air

Not available.

Épaisseur de neige

Not available.

Activité sismique

Ville Distance Mag. Time & Date
No recent earthquake activity has been reported nearby.
Minimum magnitude displayed is 2.5.

Températures des eaux côtières

Lieu Température
Aucun rapport de station

Stations météo à proximité